Time;durP1;ratioP1;P1;durP2;ratioP2;P2;SDS_P1;SDS_P2;PMS_P1;PMS_P2;Temp;Humidity;BMP_temperature;BMP_pressure;BME280_temperature;BME280_humidity;BME280_pressure;Samples;Min_cycle;Max_cycle;Signal;HPM_P1;HPM_P2
2023/07/29 00:01:01;;;;;;;8.40;5.60;;;;;;;19.85;100.00;101070.72;2532602;23;20206;-64
2023/07/29 00:02:01;;;;;;;9.23;5.80;;;;;;;20.09;100.00;101111.56;2532833;23;20265;-64
2023/07/29 00:03:01;;;;;;;7.57;5.40;;;;;;;20.09;100.00;101105.16;2533116;23;20389;-63
2023/07/29 00:04:02;;;;;;;12.47;6.10;;;;;;;19.88;100.00;101078.94;2533126;23;20284;-64
2023/07/29 00:05:03;;;;;;;9.60;5.70;;;;;;;20.11;100.00;101120.28;2533189;23;20153;-64
2023/07/29 00:06:03;;;;;;;14.03;5.63;;;;;;;19.90;100.00;101098.16;2533374;23;20389;-63
2023/07/29 00:07:04;;;;;;;10.17;5.63;;;;;;;20.08;100.00;101112.03;2533934;23;20154;-63
2023/07/29 00:08:05;;;;;;;9.77;5.50;;;;;;;20.13;100.00;101119.81;2533772;23;20178;-64
2023/07/29 00:09:06;;;;;;;10.60;5.27;;;;;;;19.67;100.00;101043.56;2534014;23;20578;-64
2023/07/29 00:10:07;;;;;;;7.30;5.27;;;;;;;20.15;100.00;101114.44;2533663;23;20378;-64
2023/07/29 00:11:07;;;;;;;7.30;5.00;;;;;;;20.11;100.00;101103.41;2533526;23;20181;-63
2023/07/29 00:12:08;;;;;;;7.60;5.37;;;;;;;20.18;100.00;101116.31;2533789;23;20382;-64
2023/07/29 00:13:08;;;;;;;6.77;4.87;;;;;;;20.19;100.00;101115.03;2533862;23;20178;-64
2023/07/29 00:14:09;;;;;;;8.57;5.00;;;;;;;20.15;100.00;101111.63;2533852;23;20248;-64
2023/07/29 00:15:09;;;;;;;8.43;5.10;;;;;;;19.78;100.00;101083.13;2533954;23;20194;-63
2023/07/29 00:16:10;;;;;;;8.60;4.90;;;;;;;20.02;100.00;101117.56;2533841;23;20157;-64
2023/07/29 00:17:10;;;;;;;7.60;5.63;;;;;;;19.98;100.00;101119.00;2533846;23;20237;-64
2023/07/29 00:18:11;;;;;;;7.60;5.33;;;;;;;20.02;100.00;101128.03;2533631;23;20150;-64
2023/07/29 00:19:11;;;;;;;7.80;6.10;;;;;;;19.78;100.00;101093.56;2533842;23;20192;-63
2023/07/29 00:20:12;;;;;;;7.27;5.57;;;;;;;19.82;100.00;101123.09;2533811;23;20156;-64
2023/07/29 00:21:12;;;;;;;8.20;5.50;;;;;;;19.37;100.00;101050.41;2533450;23;20154;-63
2023/07/29 00:22:12;;;;;;;9.17;5.70;;;;;;;19.55;100.00;101075.53;2533602;23;20187;-64
2023/07/29 00:23:13;;;;;;;8.53;5.93;;;;;;;19.83;100.00;101118.22;2533853;23;20150;-64
2023/07/29 00:24:13;;;;;;;9.77;5.80;;;;;;;19.85;100.00;101124.16;2533823;23;20161;-64
2023/07/29 00:25:14;;;;;;;6.77;5.37;;;;;;;19.31;100.00;101048.75;2533883;23;20585;-63
2023/07/29 00:26:14;;;;;;;8.87;5.40;;;;;;;19.28;100.00;101042.06;2533939;23;20172;-64
2023/07/29 00:27:14;;;;;;;7.47;4.93;;;;;;;19.78;100.00;101102.81;2533798;23;20257;-64
2023/07/29 00:28:15;;;;;;;6.20;5.20;;;;;;;19.84;100.00;101123.34;2533601;23;20154;-64
2023/07/29 00:29:15;;;;;;;6.63;5.17;;;;;;;19.86;100.00;101115.19;2533936;23;20178;-64
2023/07/29 00:30:16;;;;;;;8.07;5.13;;;;;;;19.81;100.00;101112.31;2520760;23;20509;-63
2023/07/29 00:31:16;;;;;;;7.33;5.83;;;;;;;19.76;100.00;101110.94;2508512;23;20166;-64
2023/07/29 00:32:17;;;;;;;9.33;5.63;;;;;;;19.76;100.00;101108.13;2520950;23;20149;-64
2023/07/29 00:33:18;;;;;;;8.20;5.13;;;;;;;19.76;100.00;101105.31;2533907;23;20554;-63
2023/07/29 00:34:19;;;;;;;6.17;4.13;;;;;;;19.75;100.00;101109.38;2533797;23;20502;-64
2023/07/29 00:35:19;;;;;;;7.90;4.73;;;;;;;19.77;100.00;101106.88;2533879;23;20448;-63
2023/07/29 00:36:20;;;;;;;5.93;3.33;;;;;;;19.47;100.00;101074.38;2520977;23;20597;-64
2023/07/29 00:37:21;;;;;;;6.23;4.33;;;;;;;19.77;100.00;101118.13;2520818;23;20158;-63
2023/07/29 00:38:21;;;;;;;7.60;4.60;;;;;;;19.78;100.00;101121.69;2533531;23;20679;-64
2023/07/29 00:39:22;;;;;;;6.57;4.50;;;;;;;19.78;100.00;101116.06;2533894;23;20161;-63
2023/07/29 00:40:23;;;;;;;5.33;3.90;;;;;;;19.80;100.00;101117.16;2533434;23;20159;-63
2023/07/29 00:41:24;;;;;;;5.27;3.80;;;;;;;19.83;100.00;101119.00;2533314;23;20385;-63
2023/07/29 00:42:25;;;;;;;6.40;3.63;;;;;;;19.83;100.00;101121.81;2533607;23;20185;-64
2023/07/29 00:43:25;;;;;;;4.00;3.57;;;;;;;19.81;100.00;101117.94;2520885;23;20392;-64
2023/07/29 00:44:26;;;;;;;6.33;3.83;;;;;;;19.82;100.00;101119.47;2520953;23;20523;-64
2023/07/29 00:45:27;;;;;;;6.17;3.90;;;;;;;19.84;100.00;101116.94;2533778;23;20157;-64
2023/07/29 00:46:28;;;;;;;6.87;4.47;;;;;;;19.84;100.00;101120.56;2533595;23;20153;-64
2023/07/29 00:47:29;;;;;;;5.07;3.87;;;;;;;19.84;100.00;101122.56;2533722;23;20176;-63
2023/07/29 00:48:29;;;;;;;7.70;4.30;;;;;;;19.83;100.00;101115.41;2533599;23;20647;-63
2023/07/29 00:49:30;;;;;;;8.27;4.10;;;;;;;19.63;100.00;101078.72;2533796;23;20289;-63
2023/07/29 00:50:32;;;;;;;9.10;3.77;;;;;;;19.18;100.00;101008.88;2533304;23;20157;-63
2023/07/29 00:51:32;;;;;;;4.73;3.50;;;;;;;19.86;100.00;101115.19;2533386;23;20184;-64
2023/07/29 00:52:33;;;;;;;4.93;3.40;;;;;;;19.88;100.00;101114.72;2533430;23;20437;-64
2023/07/29 00:53:33;;;;;;;8.17;3.47;;;;;;;19.90;100.00;101117.84;2533850;23;20147;-63
2023/07/29 00:54:34;;;;;;;7.77;3.90;;;;;;;19.94;100.00;101115.59;2533801;23;20517;-64
2023/07/29 00:55:34;;;;;;;7.97;4.10;;;;;;;19.93;100.00;101091.53;2533741;23;20154;-64
2023/07/29 00:56:35;;;;;;;7.73;3.63;;;;;;;20.01;100.00;101110.34;2533509;23;20501;-64
2023/07/29 00:57:35;;;;;;;5.37;3.83;;;;;;;20.03;100.00;101109.88;2533598;23;20176;-64
2023/07/29 00:58:36;;;;;;;7.70;4.17;;;;;;;20.02;100.00;101111.16;2533719;23;20159;-64
2023/07/29 00:59:36;;;;;;;6.23;3.97;;;;;;;20.03;100.00;101119.09;2533716;23;20178;-63
2023/07/29 01:00:37;;;;;;;6.03;3.97;;;;;;;19.41;100.00;101008.84;2533491;23;20162;-63
2023/07/29 01:01:38;;;;;;;6.60;3.67;;;;;;;19.80;100.00;101072.16;2533530;23;20234;-63
2023/07/29 01:02:39;;;;;;;7.63;3.70;;;;;;;20.00;100.00;101103.19;2533667;23;20191;-63
2023/07/29 01:03:39;;;;;;;6.63;3.63;;;;;;;19.96;100.00;101107.47;2533773;23;20424;-64
2023/07/29 01:04:40;;;;;;;4.63;3.50;;;;;;;19.98;100.00;101104.94;2533808;23;20244;-64
2023/07/29 01:06:09;;;;;;;5.73;3.57;;;;;;;19.99;100.00;101103.66;2520401;23;20176;-64
2023/07/29 01:07:31;;;;;;;4.60;3.70;;;;;;;19.67;100.00;101057.63;2526792;23;20146;-64
2023/07/29 01:08:43;;;;;;;5.30;3.40;;;;;;;19.91;100.00;101094.84;2533714;23;20429;-63
2023/07/29 01:10:11;;;;;;;5.17;3.50;;;;;;;19.80;100.00;101097.47;2533747;23;20375;-64
2023/07/29 01:11:27;;;;;;;5.13;3.60;;;;;;;19.38;100.00;101054.78;2533243;23;20375;-64
2023/07/29 01:13:09;;;;;;;6.07;3.53;;;;;;;19.71;100.00;101099.59;2533566;23;20351;-63
2023/07/29 01:14:31;;;;;;;4.57;4.07;;;;;;;19.66;100.00;101089.03;2484729;23;20510;-64
2023/07/29 01:15:47;;;;;;;5.93;3.53;;;;;;;19.40;100.00;101055.06;2533752;23;20369;-63
2023/07/29 01:16:53;;;;;;;5.00;3.63;;;;;;;19.65;100.00;101093.84;2533644;23;20373;-63
2023/07/29 01:18:15;;;;;;;5.03;3.27;;;;;;;19.29;100.00;101035.16;2533560;23;20380;-63
2023/07/29 01:19:31;;;;;;;7.03;3.40;;;;;;;19.68;100.00;101090.09;2533470;23;20765;-64
2023/07/29 01:20:39;;;;;;;5.23;3.30;;;;;;;19.66;100.00;101092.59;2520481;23;20895;-63
2023/07/29 01:21:39;;;;;;;4.63;2.93;;;;;;;19.62;100.00;101089.22;2521815;23;20390;-63
2023/07/29 01:22:41;;;;;;;4.17;3.40;;;;;;;19.08;100.00;101008.19;2533471;23;20944;-64
2023/07/29 01:23:41;;;;;;;3.93;3.30;;;;;;;19.60;100.00;101090.97;2533462;23;20151;-64
2023/07/29 01:24:41;;;;;;;5.77;3.53;;;;;;;19.58;100.00;101097.06;2533930;23;20866;-64
2023/07/29 01:25:42;;;;;;;4.43;3.27;;;;;;;19.56;100.00;101085.53;2533540;23;20623;-64
2023/07/29 01:26:42;;;;;;;3.40;2.97;;;;;;;19.60;100.00;101099.41;2533536;23;20503;-63
2023/07/29 01:27:45;;;;;;;3.93;3.10;;;;;;;19.60;100.00;101090.97;2533326;23;20221;-64
2023/07/29 01:28:46;;;;;;;4.03;3.20;;;;;;;19.62;100.00;101094.06;2520615;23;20613;-63
2023/07/29 01:29:46;;;;;;;5.23;3.00;;;;;;;19.63;100.00;101099.19;2520750;23;20777;-64
2023/07/29 01:30:50;;;;;;;3.83;2.83;;;;;;;19.38;100.00;101065.22;2533275;23;20150;-64
2023/07/29 01:31:57;;;;;;;4.10;2.90;;;;;;;19.61;100.00;101103.75;2533421;23;20566;-64
2023/07/29 01:33:17;;;;;;;4.03;3.10;;;;;;;19.61;100.00;101098.91;2533575;23;20718;-64
2023/07/29 01:34:34;;;;;;;4.33;3.30;;;;;;;19.60;100.00;101105.00;2533405;23;20401;-64
2023/07/29 01:35:46;;;;;;;5.10;3.10;;;;;;;19.53;100.00;101106.16;2533709;23;20469;-63
2023/07/29 01:36:50;;;;;;;4.57;3.50;;;;;;;19.54;100.00;101107.72;2533564;23;20372;-64
2023/07/29 01:37:56;;;;;;;5.27;3.40;;;;;;;19.55;100.00;101098.00;2533352;23;20727;-64
2023/07/29 01:38:57;;;;;;;4.07;3.10;;;;;;;19.58;100.00;101108.31;2533652;23;20394;-64
2023/07/29 01:40:00;;;;;;;5.57;2.97;;;;;;;19.59;100.00;101115.47;2533473;23;20382;-63
2023/07/29 01:41:02;;;;;;;5.30;3.00;;;;;;;19.51;100.00;101100.25;2533321;23;20161;-64
2023/07/29 01:42:03;;;;;;;3.50;2.87;;;;;;;19.40;100.00;101073.97;2533340;23;20790;-64
2023/07/29 01:43:04;;;;;;;4.97;3.13;;;;;;;19.55;100.00;101100.06;2533563;23;20472;-63
2023/07/29 01:44:06;;;;;;;3.10;2.80;;;;;;;19.56;100.00;101098.81;2533552;23;20605;-63
2023/07/29 01:45:07;;;;;;;5.77;3.23;;;;;;;19.56;100.00;101104.44;2533617;23;20225;-64
2023/07/29 01:46:07;;;;;;;5.23;2.90;;;;;;;19.60;100.00;101107.84;2533498;23;20477;-64
2023/07/29 01:47:08;;;;;;;4.37;2.73;;;;;;;19.59;100.00;101109.09;2533479;23;20213;-63
2023/07/29 01:48:08;;;;;;;4.67;2.77;;;;;;;19.60;100.00;101116.25;2519894;23;20179;-64
2023/07/29 01:49:09;;;;;;;5.63;3.40;;;;;;;19.54;100.00;101116.16;2520453;23;20685;-64
2023/07/29 01:50:09;;;;;;;4.33;2.73;;;;;;;19.56;100.00;101118.47;2520500;23;20182;-63
2023/07/29 01:51:12;;;;;;;4.80;3.00;;;;;;;19.56;100.00;101121.28;2520112;23;20530;-64
2023/07/29 01:52:12;;;;;;;5.93;3.20;;;;;;;19.57;100.00;101120.03;2508770;23;20621;-64
2023/07/29 01:53:12;;;;;;;3.70;2.73;;;;;;;19.43;100.00;101098.28;2520334;23;20930;-64
2023/07/29 01:54:13;;;;;;;4.33;3.10;;;;;;;19.56;100.00;101112.84;2533345;23;20174;-64
2023/07/29 01:55:13;;;;;;;6.20;2.80;;;;;;;19.56;100.00;101124.09;2533278;23;20239;-63
2023/07/29 01:56:14;;;;;;;6.70;3.30;;;;;;;19.55;100.00;101125.38;2520491;23;20155;-64
2023/07/29 01:57:14;;;;;;;4.17;3.20;;;;;;;19.58;100.00;101122.38;2520731;23;20506;-63
2023/07/29 01:58:15;;;;;;;5.07;3.33;;;;;;;19.59;100.00;101129.53;2520379;23;20237;-63
2023/07/29 01:59:16;;;;;;;4.83;3.27;;;;;;;19.29;100.00;101074.50;2520734;23;20230;-63
2023/07/29 02:00:17;;;;;;;5.80;2.60;;;;;;;19.31;100.00;101085.28;2533340;23;20178;-63
2023/07/29 02:01:18;;;;;;;5.27;2.83;;;;;;;19.56;100.00;101130.50;2533141;23;20465;-63
2023/07/29 02:02:18;;;;;;;4.07;2.97;;;;;;;19.53;100.00;101127.88;2532808;23;20426;-63
2023/07/29 02:03:18;;;;;;;3.67;2.90;;;;;;;19.52;100.00;101118.66;2533445;23;20237;-64
2023/07/29 02:04:19;;;;;;;5.77;2.50;;;;;;;19.52;100.00;101127.09;2533322;23;20154;-64
2023/07/29 02:05:19;;;;;;;4.67;2.60;;;;;;;19.53;100.00;101125.06;2533565;23;20668;-64
2023/07/29 02:06:21;;;;;;;3.00;2.70;;;;;;;19.43;100.00;101118.75;2533220;23;20154;-64
2023/07/29 02:07:21;;;;;;;5.10;2.73;;;;;;;19.29;100.00;101099.03;2533392;23;20228;-64
2023/07/29 02:08:21;;;;;;;3.53;2.67;;;;;;;19.47;100.00;101124.19;2532977;23;20382;-64
2023/07/29 02:09:22;;;;;;;3.90;2.70;;;;;;;19.45;100.00;101121.06;2533481;23;20260;-63
2023/07/29 02:10:22;;;;;;;6.03;2.73;;;;;;;19.42;100.00;101122.81;2533174;23;20201;-64
2023/07/29 02:11:27;;;;;;;5.00;2.80;;;;;;;19.40;100.00;101118.94;2533073;23;20158;-64
2023/07/29 02:12:27;;;;;;;5.17;2.87;;;;;;;19.08;100.00;101067.16;2533289;23;20154;-64
2023/07/29 02:13:28;;;;;;;4.33;2.97;;;;;;;19.51;100.00;101128.38;2533453;23;20384;-64
2023/07/29 02:14:28;;;;;;;7.47;2.97;;;;;;;19.14;100.00;101067.28;2533316;23;20161;-64
2023/07/29 02:15:29;;;;;;;6.77;3.00;;;;;;;19.37;100.00;101106.63;2533450;23;20158;-64
2023/07/29 02:16:29;;;;;;;3.87;2.83;;;;;;;19.55;100.00;101123.31;2533024;23;20155;-64
2023/07/29 02:17:30;;;;;;;4.90;2.83;;;;;;;18.92;100.00;101024.69;2533226;23;20597;-64
2023/07/29 02:18:31;;;;;;;6.10;3.00;;;;;;;19.28;100.00;101078.59;2533301;23;20158;-64
2023/07/29 02:19:31;;;;;;;5.53;2.90;;;;;;;19.53;100.00;101111.00;2533367;23;20469;-64
2023/07/29 02:20:31;;;;;;;5.13;3.20;;;;;;;19.51;100.00;101117.13;2533175;23;20157;-64
2023/07/29 02:21:32;;;;;;;5.50;3.10;;;;;;;19.50;100.00;101123.22;2533219;23;20157;-64
2023/07/29 02:22:32;;;;;;;5.03;2.93;;;;;;;19.48;100.00;101125.72;2532978;23;20629;-64
2023/07/29 02:23:33;;;;;;;3.23;2.80;;;;;;;19.44;100.00;101117.47;2533370;23;20627;-64
2023/07/29 02:24:33;;;;;;;4.03;2.80;;;;;;;19.40;100.00;101122.50;2533315;23;20652;-64
2023/07/29 02:25:36;;;;;;;4.13;2.80;;;;;;;19.35;100.00;101128.03;2533408;23;20154;-64
2023/07/29 02:26:36;;;;;;;3.30;2.30;;;;;;;19.30;100.00;101123.06;2520300;23;20206;-63
2023/07/29 02:27:37;;;;;;;3.77;2.60;;;;;;;18.54;100.00;101016.22;2520405;23;20813;-63
2023/07/29 02:28:37;;;;;;;4.03;2.80;;;;;;;19.25;100.00;101130.13;2533005;23;20162;-63
2023/07/29 02:29:38;;;;;;;4.13;2.40;;;;;;;19.23;100.00;101127.00;2533146;23;20233;-64
2023/07/29 02:30:41;;;;;;;4.90;3.37;;;;;;;18.71;100.00;101062.28;2533256;23;20155;-64
2023/07/29 02:31:44;;;;;;;4.67;3.00;;;;;;;19.14;100.00;101143.13;2532764;23;20158;-64
2023/07/29 02:32:44;;;;;;;5.87;3.13;;;;;;;19.09;100.00;101122.09;2533238;23;20382;-63
2023/07/29 02:33:44;;;;;;;3.80;2.90;;;;;;;19.14;100.00;101140.34;2533237;23;20381;-64
2023/07/29 02:34:45;;;;;;;3.40;2.90;;;;;;;19.06;100.00;101133.50;2533142;23;20186;-63
2023/07/29 02:35:45;;;;;;;4.80;2.70;;;;;;;18.79;100.00;101081.09;2533408;23;20161;-63
2023/07/29 02:36:46;;;;;;;3.70;2.73;;;;;;;19.15;100.00;101139.06;2533321;23;20192;-63
2023/07/29 02:37:46;;;;;;;4.27;2.73;;;;;;;18.96;100.00;101109.53;2533072;23;20154;-63
2023/07/29 02:38:46;;;;;;;9.17;3.00;;;;;;;19.14;100.00;101148.75;2533313;23;20157;-63
2023/07/29 02:39:47;;;;;;;7.27;2.70;;;;;;;19.09;100.00;101141.00;2533331;23;20229;-64
2023/07/29 02:40:47;;;;;;;6.70;3.03;;;;;;;19.15;100.00;101148.28;2532880;23;20204;-63
2023/07/29 02:41:48;;;;;;;5.23;2.93;;;;;;;19.17;100.00;101150.59;2520337;23;20651;-64
2023/07/29 02:42:48;;;;;;;6.17;2.80;;;;;;;18.55;100.00;101077.50;2520405;23;20533;-63
2023/07/29 02:43:49;;;;;;;3.77;3.10;;;;;;;19.12;100.00;101166.09;2533178;23;20503;-64
2023/07/29 02:44:50;;;;;;;6.50;3.00;;;;;;;19.10;100.00;101165.00;2533457;23;20160;-63
2023/07/29 02:45:50;;;;;;;5.83;3.17;;;;;;;19.07;100.00;101160.34;2532930;23;20387;-63
2023/07/29 02:46:52;;;;;;;6.30;3.40;;;;;;;19.07;100.00;101168.75;2533154;23;20178;-63
2023/07/29 02:47:53;;;;;;;5.13;3.30;;;;;;;18.47;100.00;101076.28;2533225;23;20151;-64
2023/07/29 02:48:53;;;;;;;6.33;3.23;;;;;;;18.61;100.00;101086.81;2520339;23;20933;-63
2023/07/29 02:49:54;;;;;;;3.80;2.83;;;;;;;19.11;100.00;101163.75;2520346;23;20738;-64
2023/07/29 02:50:55;;;;;;;5.33;3.00;;;;;;;19.13;100.00;101159.22;2519814;23;20276;-63
2023/07/29 02:51:56;;;;;;;6.17;2.90;;;;;;;18.79;100.00;101102.78;2520356;23;20501;-64
2023/07/29 02:52:56;;;;;;;4.10;2.83;;;;;;;19.05;100.00;101141.19;2532982;23;20216;-64
2023/07/29 02:53:56;;;;;;;4.90;2.83;;;;;;;19.13;100.00;101159.22;2533320;23;20669;-63
2023/07/29 02:54:57;;;;;;;6.93;3.00;;;;;;;19.15;100.00;101153.91;2533292;23;20156;-63
2023/07/29 02:55:57;;;;;;;5.60;2.67;;;;;;;19.06;100.00;101144.75;2533281;23;20274;-64
2023/07/29 02:56:58;;;;;;;7.40;3.47;;;;;;;19.10;100.00;101148.94;2533307;23;20228;-64
2023/07/29 02:57:58;;;;;;;6.13;3.30;;;;;;;19.16;100.00;101146.25;2533203;23;20157;-63
2023/07/29 02:58:59;;;;;;;4.33;2.90;;;;;;;19.15;100.00;101153.91;2533145;23;20151;-63
2023/07/29 02:59:59;;;;;;;6.40;3.60;;;;;;;19.13;100.00;101152.84;2532926;23;20745;-64
2023/07/29 03:01:02;;;;;;;4.57;3.37;;;;;;;18.62;100.00;101076.38;2532758;23;20416;-63
2023/07/29 03:02:03;;;;;;;6.93;3.30;;;;;;;19.08;100.00;101150.69;2533253;23;20539;-63
2023/07/29 03:03:03;;;;;;;5.03;3.63;;;;;;;19.11;100.00;101153.31;2533266;23;20432;-63
2023/07/29 03:04:04;;;;;;;6.60;3.40;;;;;;;19.03;100.00;101146.47;2533161;23;20201;-63
2023/07/29 03:05:05;;;;;;;8.23;3.87;;;;;;;18.42;100.00;101060.09;2533237;23;20492;-63
2023/07/29 03:06:07;;;;;;;8.87;4.30;;;;;;;19.04;100.00;101153.66;2533248;23;20153;-63
2023/07/29 03:07:07;;;;;;;7.07;3.73;;;;;;;19.04;100.00;101150.06;2533215;23;20177;-64
2023/07/29 03:08:08;;;;;;;9.60;3.87;;;;;;;19.06;100.00;101153.16;2520282;23;20444;-64
2023/07/29 03:09:09;;;;;;;7.07;4.30;;;;;;;18.84;100.00;101124.59;2520427;23;20627;-64
2023/07/29 03:10:10;;;;;;;6.37;3.70;;;;;;;19.01;100.00;101145.41;2533253;23;20611;-63
2023/07/29 03:11:13;;;;;;;3.77;2.90;;;;;;;19.06;100.00;101158.78;2533082;23;20393;-64
2023/07/29 03:12:13;;;;;;;4.67;2.93;;;;;;;18.86;100.00;101127.69;2533332;23;20385;-64
2023/07/29 03:13:14;;;;;;;4.40;3.17;;;;;;;18.72;100.00;101112.34;2533194;23;20388;-64
2023/07/29 03:14:14;;;;;;;6.13;3.50;;;;;;;19.05;100.00;101158.03;2533130;23;20161;-63
2023/07/29 03:15:15;;;;;;;4.93;3.20;;;;;;;18.98;100.00;101152.75;2533403;23;20239;-63
2023/07/29 03:16:16;;;;;;;4.97;3.27;;;;;;;17.90;100.00;100984.13;2533159;23;20671;-64
2023/07/29 03:17:17;;;;;;;5.83;3.80;;;;;;;18.96;100.00;101146.84;2533111;23;20238;-64
2023/07/29 03:18:17;;;;;;;5.73;3.90;;;;;;;18.98;100.00;101149.19;2533210;23;20402;-63
2023/07/29 03:19:18;;;;;;;9.70;4.20;;;;;;;19.00;100.00;101143.84;2533386;23;20156;-64
2023/07/29 03:20:19;;;;;;;8.73;3.70;;;;;;;18.98;100.00;101144.31;2533150;23;20154;-63
2023/07/29 03:21:20;;;;;;;8.03;3.30;;;;;;;18.98;100.00;101140.75;2533135;23;20620;-63
2023/07/29 03:22:20;;;;;;;6.50;3.67;;;;;;;18.95;100.00;101130.47;2533168;23;20859;-63
2023/07/29 03:23:21;;;;;;;4.83;3.67;;;;;;;18.97;100.00;101136.38;2533279;23;20155;-63
2023/07/29 03:24:21;;;;;;;7.57;3.87;;;;;;;18.94;100.00;101142.97;2533240;23;20229;-63
2023/07/29 03:25:21;;;;;;;6.10;3.73;;;;;;;18.90;100.00;101145.94;2533136;23;20153;-64
2023/07/29 03:26:22;;;;;;;4.43;3.53;;;;;;;18.91;100.00;101135.47;2533156;23;20495;-64
2023/07/29 03:27:22;;;;;;;3.77;3.47;;;;;;;18.89;100.00;101140.81;2533265;23;20239;-63
2023/07/29 03:28:24;;;;;;;4.67;3.63;;;;;;;18.87;100.00;101144.09;2533104;23;20666;-63
2023/07/29 03:29:25;;;;;;;5.53;4.07;;;;;;;18.27;100.00;101050.78;2533149;23;20226;-64
2023/07/29 03:30:25;;;;;;;5.33;3.53;;;;;;;18.87;100.00;101152.50;2532822;23;20395;-63
2023/07/29 03:31:26;;;;;;;3.87;3.30;;;;;;;18.89;100.00;101152.78;2533021;23;20237;-63
2023/07/29 03:32:26;;;;;;;8.67;3.77;;;;;;;18.91;100.00;101155.13;2533394;23;20150;-63
2023/07/29 03:33:26;;;;;;;4.00;3.33;;;;;;;18.93;100.00;101158.25;2533221;23;20246;-63
2023/07/29 03:34:27;;;;;;;5.87;3.40;;;;;;;18.91;100.00;101152.31;2533276;23;20808;-63
2023/07/29 03:35:27;;;;;;;8.83;3.67;;;;;;;18.91;100.00;101174.78;2533303;23;20628;-64
2023/07/29 03:36:28;;;;;;;3.77;3.27;;;;;;;18.55;100.00;101107.59;2533201;23;20162;-64
2023/07/29 03:37:28;;;;;;;4.37;3.23;;;;;;;18.52;100.00;101105.75;2533210;23;20155;-64
2023/07/29 03:38:29;;;;;;;6.70;3.40;;;;;;;18.92;100.00;101162.28;2533300;23;20154;-63
2023/07/29 03:39:29;;;;;;;5.03;3.60;;;;;;;18.92;100.00;101165.91;2533298;23;20155;-63
2023/07/29 03:40:29;;;;;;;5.07;3.57;;;;;;;18.91;100.00;101169.97;2533630;23;20154;-64
2023/07/29 03:41:30;;;;;;;4.60;3.50;;;;;;;18.95;100.00;101169.78;2533705;23;20159;-64
2023/07/29 03:42:30;;;;;;;6.13;3.80;;;;;;;18.95;100.00;101164.97;2533847;23;20636;-64
2023/07/29 03:43:31;;;;;;;4.00;3.13;;;;;;;18.98;100.00;101171.66;2533850;23;20648;-64
2023/07/29 03:44:31;;;;;;;4.37;3.30;;;;;;;18.99;100.00;101170.38;2534043;23;20522;-64
2023/07/29 03:45:33;;;;;;;8.90;3.43;;;;;;;18.95;100.00;101169.78;2533984;23;20158;-63
2023/07/29 03:46:33;;;;;;;5.30;3.23;;;;;;;18.57;100.00;101117.09;2534072;23;20289;-63
2023/07/29 03:47:34;;;;;;;6.57;3.33;;;;;;;18.87;100.00;101169.34;2533978;23;20386;-63
2023/07/29 03:48:34;;;;;;;4.50;3.60;;;;;;;18.79;100.00;101170.19;2534001;23;20631;-63
2023/07/29 03:49:35;;;;;;;5.53;3.53;;;;;;;18.68;100.00;101176.31;2534038;23;20673;-63
2023/07/29 03:50:36;;;;;;;5.57;3.73;;;;;;;18.65;100.00;101174.47;2533741;23;20152;-64
2023/07/29 03:51:37;;;;;;;8.97;3.73;;;;;;;18.61;100.00;101179.47;2533947;23;20154;-63
2023/07/29 03:52:37;;;;;;;7.00;4.00;;;;;;;18.57;100.00;101184.47;2533828;23;20382;-63
2023/07/29 03:53:37;;;;;;;4.93;3.53;;;;;;;18.52;100.00;101171.06;2533957;23;20193;-63
2023/07/29 03:54:38;;;;;;;5.67;3.20;;;;;;;18.45;100.00;101148.97;2533986;23;20150;-63
2023/07/29 03:55:38;;;;;;;4.27;3.23;;;;;;;18.62;100.00;101171.81;2534017;23;20151;-63
2023/07/29 03:56:39;;;;;;;4.67;3.27;;;;;;;18.62;100.00;101171.81;2534093;23;20175;-64
2023/07/29 03:57:39;;;;;;;8.33;3.50;;;;;;;18.62;100.00;101169.03;2533645;23;20150;-63
2023/07/29 03:58:39;;;;;;;4.17;3.13;;;;;;;18.63;100.00;101173.38;2533980;23;20154;-63
2023/07/29 03:59:40;;;;;;;4.53;3.20;;;;;;;18.65;100.00;101168.84;2521183;23;20170;-63
2023/07/29 04:00:40;;;;;;;7.63;3.27;;;;;;;18.66;100.00;101170.41;2520851;23;20617;-64
2023/07/29 04:01:41;;;;;;;4.10;3.13;;;;;;;18.66;100.00;101164.78;2533677;23;20157;-63
2023/07/29 04:02:42;;;;;;;4.93;3.63;;;;;;;18.67;100.00;101166.34;2533875;23;20269;-63
2023/07/29 04:03:42;;;;;;;4.10;3.20;;;;;;;18.68;100.00;101167.88;2534135;23;20159;-63
2023/07/29 04:04:47;;;;;;;5.43;3.27;;;;;;;18.71;100.00;101171.78;2533767;23;20470;-63
2023/07/29 04:05:47;;;;;;;7.03;3.60;;;;;;;18.57;100.00;101133.94;2534113;23;20156;-63
2023/07/29 04:06:48;;;;;;;5.33;3.50;;;;;;;18.76;100.00;101159.88;2533847;23;20461;-64
2023/07/29 04:07:48;;;;;;;5.90;3.20;;;;;;;18.78;100.00;101163.78;2533723;23;20151;-63
2023/07/29 04:08:49;;;;;;;6.23;3.40;;;;;;;18.84;100.00;101164.69;2533913;23;20564;-64
2023/07/29 04:09:49;;;;;;;5.93;3.37;;;;;;;18.31;100.00;101085.06;2533815;23;20269;-63
2023/07/29 04:10:50;;;;;;;4.27;3.30;;;;;;;18.62;100.00;101126.91;2533371;23;20212;-63
2023/07/29 04:11:51;;;;;;;5.53;3.40;;;;;;;18.99;100.00;101184.44;2533600;23;20154;-63
2023/07/29 04:12:51;;;;;;;7.73;3.53;;;;;;;18.40;100.00;101101.91;2533779;23;20230;-64
2023/07/29 04:13:52;;;;;;;8.33;3.70;;;;;;;19.04;100.00;101184.53;2533756;23;20150;-63
2023/07/29 04:14:52;;;;;;;7.37;3.77;;;;;;;19.06;100.00;101193.28;2533709;23;20154;-63
2023/07/29 04:15:53;;;;;;;4.87;3.33;;;;;;;18.46;100.00;101094.38;2520973;23;20311;-63
2023/07/29 04:16:53;;;;;;;8.53;3.63;;;;;;;19.08;100.00;101184.38;2521011;23;20599;-63
2023/07/29 04:17:53;;;;;;;6.53;3.37;;;;;;;19.09;100.00;101183.88;2533717;23;20668;-64
2023/07/29 04:18:54;;;;;;;4.60;3.07;;;;;;;19.14;100.00;101186.03;2533862;23;20224;-63
2023/07/29 04:19:54;;;;;;;6.57;3.53;;;;;;;19.17;100.00;101185.09;2533993;23;20637;-64
2023/07/29 04:20:55;;;;;;;6.77;3.40;;;;;;;19.21;100.00;101182.09;2533566;23;20153;-63
2023/07/29 04:21:55;;;;;;;6.57;3.57;;;;;;;19.23;100.00;101177.59;2533950;23;20148;-63
2023/07/29 04:22:56;;;;;;;10.50;3.87;;;;;;;19.24;100.00;101179.16;2534033;23;20154;-63
2023/07/29 04:23:56;;;;;;;12.20;3.53;;;;;;;19.29;100.00;101184.09;2533820;23;20185;-63
2023/07/29 04:24:56;;;;;;;9.53;3.67;;;;;;;19.36;100.00;101182.97;2533681;23;20146;-63
2023/07/29 04:25:57;;;;;;;8.23;3.50;;;;;;;19.38;100.00;101172.81;2533711;23;20278;-63
2023/07/29 04:26:57;;;;;;;5.90;3.40;;;;;;;19.39;100.00;101174.34;2534046;23;20171;-64
2023/07/29 04:27:58;;;;;;;5.40;3.20;;;;;;;19.43;100.00;101172.16;2533615;23;20151;-64
2023/07/29 04:28:58;;;;;;;8.83;3.63;;;;;;;19.49;100.00;101175.09;2533777;23;20170;-63
2023/07/29 04:29:59;;;;;;;5.93;3.40;;;;;;;19.34;100.00;101140.53;2533846;23;20158;-64
2023/07/29 04:30:59;;;;;;;4.93;3.00;;;;;;;19.59;100.00;101162.50;2533541;23;20161;-63
2023/07/29 04:32:01;;;;;;;7.80;3.47;;;;;;;19.60;100.00;101169.69;2533950;23;20593;-64
2023/07/29 04:33:01;;;;;;;7.83;3.60;;;;;;;19.65;100.00;101166.19;2533759;23;20264;-63
2023/07/29 04:34:02;;;;;;;6.03;3.10;;;;;;;19.68;100.00;101176.47;2534026;23;20382;-63
2023/07/29 04:35:03;;;;;;;6.80;3.67;;;;;;;19.71;100.00;101179.09;2533776;23;20150;-63
2023/07/29 04:36:04;;;;;;;6.43;3.20;;;;;;;19.72;100.00;101175.03;2533855;23;20188;-63
2023/07/29 04:37:04;;;;;;;6.73;3.63;;;;;;;19.73;100.00;101168.16;2520906;23;20159;-63
2023/07/29 04:38:05;;;;;;;8.13;4.23;;;;;;;19.79;100.00;101177.47;2520815;23;20409;-63
2023/07/29 04:39:05;;;;;;;9.27;3.90;;;;;;;19.83;100.00;101175.25;2520980;23;20163;-64
2023/07/29 04:40:06;;;;;;;7.97;3.70;;;;;;;19.84;100.00;101176.00;2520671;23;20179;-64
2023/07/29 04:41:08;;;;;;;5.53;3.13;;;;;;;19.86;100.00;101170.69;2533296;23;20146;-63
2023/07/29 04:42:09;;;;;;;7.77;3.40;;;;;;;19.87;100.00;101161.78;2533871;23;20436;-64
2023/07/29 04:43:09;;;;;;;9.10;3.20;;;;;;;19.34;100.00;101073.09;2533801;23;20382;-64
2023/07/29 04:44:10;;;;;;;6.17;3.07;;;;;;;19.49;100.00;101102.00;2533779;23;20174;-63